createdAt,value
2017-08-23T00:01:37.787Z,82.50
2017-08-23T00:04:05.252Z,82.50
2017-08-23T00:06:32.811Z,82.70
2017-08-23T00:09:00.288Z,82.60
2017-08-23T00:11:27.822Z,83.20
2017-08-23T00:13:55.387Z,82.90
2017-08-23T00:16:22.864Z,82.80
2017-08-23T00:18:50.420Z,82.70
2017-08-23T00:21:17.882Z,82.60
2017-08-23T00:23:46.140Z,82.70
2017-08-23T00:26:13.726Z,82.70
2017-08-23T00:28:41.967Z,82.50
2017-08-23T00:31:09.531Z,82.40
2017-08-23T00:33:37.003Z,82.60
2017-08-23T00:36:04.468Z,82.60
2017-08-23T00:38:31.940Z,82.70
2017-08-23T00:40:59.463Z,82.60
2017-08-23T00:43:27.023Z,82.70
2017-08-23T00:45:54.490Z,83.00
2017-08-23T00:48:21.962Z,83.00
2017-08-23T00:50:49.493Z,83.00
2017-08-23T00:53:17.090Z,83.20
2017-08-23T00:55:44.591Z,83.30
2017-08-23T00:58:12.064Z,83.20
2017-08-23T01:00:39.623Z,83.80
2017-08-23T01:03:07.097Z,83.40
2017-08-23T01:05:34.650Z,83.20
2017-08-23T01:08:02.199Z,83.30
2017-08-23T01:10:29.787Z,83.60
2017-08-23T01:12:57.244Z,83.70
2017-08-23T01:15:24.772Z,83.40
2017-08-23T01:17:52.318Z,83.50
2017-08-23T01:20:19.786Z,83.30
2017-08-23T01:22:47.252Z,83.70
2017-08-23T01:25:14.802Z,83.60
2017-08-23T01:27:42.367Z,84.00
2017-08-23T01:30:10.223Z,83.90
2017-08-23T01:32:37.697Z,83.80
2017-08-23T01:35:05.244Z,83.70
2017-08-23T01:37:32.809Z,83.70
2017-08-23T01:40:00.375Z,83.40
2017-08-23T01:42:27.836Z,84.20
2017-08-23T01:44:55.298Z,84.10
2017-08-23T01:47:22.831Z,84.00
2017-08-23T01:49:50.307Z,83.80
2017-08-23T01:52:18.543Z,84.00
2017-08-23T01:54:46.015Z,84.00
2017-08-23T01:57:13.487Z,84.20
2017-08-23T01:59:41.716Z,84.30
2017-08-23T02:02:09.230Z,84.30
2017-08-23T02:04:36.762Z,84.50
2017-08-23T02:07:04.323Z,84.80
2017-08-23T02:09:32.050Z,84.60
2017-08-23T02:11:59.528Z,84.30
2017-08-23T02:14:26.987Z,84.30
2017-08-23T02:16:54.462Z,84.80
2017-08-23T02:19:22.020Z,84.30
2017-08-23T02:21:49.584Z,84.40
2017-08-23T02:24:17.052Z,84.50
2017-08-23T02:26:44.594Z,84.50
2017-08-23T02:29:12.060Z,84.50
2017-08-23T02:31:39.616Z,84.50
2017-08-23T02:34:07.860Z,84.70
2017-08-23T02:36:35.346Z,84.60
2017-08-23T02:39:02.888Z,84.50
2017-08-23T02:41:30.354Z,84.60
2017-08-23T02:43:57.826Z,84.60
2017-08-23T02:46:26.084Z,84.80
2017-08-23T02:48:53.622Z,84.80
2017-08-23T02:51:21.104Z,84.80
2017-08-23T02:53:48.650Z,84.60
2017-08-23T02:56:16.228Z,85.20
2017-08-23T02:58:43.693Z,85.00
2017-08-23T03:01:11.229Z,85.00
2017-08-23T03:03:38.796Z,85.30
2017-08-23T03:06:06.270Z,85.00
2017-08-23T03:08:33.739Z,86.00
2017-08-23T03:11:01.260Z,85.20
2017-08-23T03:13:28.846Z,84.80
2017-08-23T03:15:56.379Z,84.70
2017-08-23T03:18:23.843Z,84.80
2017-08-23T03:20:51.310Z,84.70
2017-08-23T03:23:18.903Z,84.70
2017-08-23T03:25:46.379Z,85.10
2017-08-23T03:28:13.855Z,85.20
2017-08-23T03:30:41.327Z,85.20
2017-08-23T03:33:08.802Z,85.30
2017-08-23T03:35:37.043Z,85.00
2017-08-23T03:38:04.620Z,85.00
2017-08-23T03:40:32.079Z,85.10
2017-08-23T03:42:59.556Z,85.30
2017-08-23T03:45:27.023Z,85.80
2017-08-23T03:47:54.483Z,85.50
2017-08-23T03:50:22.032Z,85.70
2017-08-23T03:52:49.507Z,85.20
2017-08-23T03:55:17.024Z,84.90
2017-08-23T03:57:44.642Z,85.00
2017-08-23T04:00:12.138Z,85.80
2017-08-23T04:02:39.695Z,85.20
2017-08-23T04:05:07.270Z,85.20
2017-08-23T04:07:34.830Z,85.30
2017-08-23T04:10:03.091Z,85.30
2017-08-23T04:12:30.647Z,85.20
2017-08-23T04:14:58.205Z,85.80
2017-08-23T04:17:25.691Z,85.20
2017-08-23T04:19:53.173Z,85.50
2017-08-23T04:22:20.673Z,85.20
2017-08-23T04:24:48.143Z,85.10
2017-08-23T04:27:15.688Z,85.30
2017-08-23T04:29:43.245Z,85.00
2017-08-23T04:32:10.807Z,85.00
2017-08-23T04:34:38.303Z,84.70
2017-08-23T04:37:06.402Z,85.10
2017-08-23T04:39:33.858Z,85.20
2017-08-23T04:42:01.347Z,85.10
2017-08-23T04:44:28.822Z,85.10
2017-08-23T04:46:56.298Z,84.80
2017-08-23T04:49:24.064Z,84.80
2017-08-23T04:51:51.536Z,84.70
2017-08-23T04:54:18.999Z,84.60
2017-08-23T04:56:47.444Z,84.60
2017-08-23T04:59:14.986Z,84.80
2017-08-23T05:01:42.547Z,85.30
2017-08-23T05:04:10.096Z,85.60
2017-08-23T05:06:37.567Z,85.10
2017-08-23T05:09:05.916Z,84.50
2017-08-23T05:11:33.483Z,84.60
2017-08-23T05:14:01.051Z,84.60
2017-08-23T05:16:28.614Z,84.60
2017-08-23T05:18:56.079Z,85.30
2017-08-23T05:21:23.621Z,84.90
2017-08-23T05:23:51.174Z,84.80
2017-08-23T05:26:18.634Z,85.00
2017-08-23T05:28:46.196Z,85.00
2017-08-23T05:31:13.651Z,84.90
2017-08-23T05:33:41.209Z,85.00
2017-08-23T05:36:09.695Z,85.20
2017-08-23T05:38:37.164Z,85.60
2017-08-23T05:41:04.659Z,85.20
2017-08-23T05:43:32.135Z,85.50
2017-08-23T05:45:59.619Z,85.20
2017-08-23T05:48:27.179Z,85.30
2017-08-23T05:50:54.664Z,85.30
2017-08-23T05:53:22.190Z,84.70
2017-08-23T05:55:49.669Z,85.50
2017-08-23T05:58:17.142Z,84.70
2017-08-23T06:00:44.685Z,84.60
2017-08-23T06:03:12.227Z,84.20
2017-08-23T06:05:39.771Z,83.90
2017-08-23T06:08:07.335Z,83.50
2017-08-23T06:10:34.907Z,83.30
2017-08-23T06:13:02.433Z,83.00
2017-08-23T06:15:29.894Z,82.60
2017-08-23T06:17:57.367Z,82.60
2017-08-23T06:20:24.851Z,81.40
2017-08-23T06:22:52.383Z,78.80
2017-08-23T06:25:19.876Z,75.90
2017-08-23T06:27:47.345Z,74.20
2017-08-23T06:30:14.864Z,73.90
2017-08-23T06:32:42.620Z,73.70
2017-08-23T06:35:10.184Z,75.10
2017-08-23T06:37:37.647Z,74.50
2017-08-23T06:40:05.191Z,75.20
2017-08-23T06:42:32.674Z,75.50
2017-08-23T06:45:00.139Z,75.20
2017-08-23T06:47:28.359Z,72.00
2017-08-23T06:49:55.840Z,72.00
2017-08-23T06:52:23.404Z,69.60
2017-08-23T06:54:50.906Z,68.50
2017-08-23T06:57:18.370Z,67.80
2017-08-23T06:59:45.836Z,68.30
2017-08-23T07:02:13.303Z,68.00
2017-08-23T07:04:40.889Z,68.30
2017-08-23T07:07:08.787Z,69.30
2017-08-23T07:09:36.327Z,71.20
2017-08-23T07:12:03.803Z,72.20
2017-08-23T07:14:31.332Z,72.90
2017-08-23T07:16:58.903Z,74.00
2017-08-23T07:19:26.443Z,74.60
2017-08-23T07:21:53.924Z,73.40
2017-08-23T07:24:21.470Z,73.70
2017-08-23T07:26:48.967Z,74.50
2017-08-23T07:29:16.440Z,74.30
2017-08-23T07:31:43.913Z,74.60
2017-08-23T07:34:11.789Z,74.50
2017-08-23T07:36:40.047Z,75.00
2017-08-23T07:39:07.531Z,75.00
2017-08-23T07:41:35.013Z,74.10
2017-08-23T07:44:03.255Z,73.10
2017-08-23T07:46:30.725Z,73.00
2017-08-23T07:48:58.328Z,73.10
2017-08-23T07:51:25.843Z,73.50
2017-08-23T07:53:54.103Z,73.60
2017-08-23T07:56:21.664Z,73.30
2017-08-23T07:58:49.142Z,73.60
2017-08-23T08:01:16.607Z,74.10
2017-08-23T08:03:45.262Z,73.30
2017-08-23T08:06:12.719Z,73.30
2017-08-23T08:08:40.195Z,72.80
2017-08-23T08:11:07.736Z,73.10
2017-08-23T08:13:35.304Z,73.40
2017-08-23T08:16:02.851Z,73.40
2017-08-23T08:18:30.466Z,72.60
2017-08-23T08:20:58.063Z,72.50
2017-08-23T08:23:25.535Z,73.00
2017-08-23T08:25:53.088Z,71.30
2017-08-23T08:28:20.620Z,71.10
2017-08-23T08:30:48.111Z,71.20
2017-08-23T08:33:15.672Z,71.10
2017-08-23T08:35:43.254Z,71.30
2017-08-23T08:38:10.736Z,71.60
2017-08-23T08:40:38.195Z,71.10
2017-08-23T08:43:05.682Z,70.70
2017-08-23T08:45:33.180Z,70.00
2017-08-23T08:48:01.107Z,69.20
2017-08-23T08:50:28.691Z,69.20
2017-08-23T08:52:56.200Z,69.20
2017-08-23T08:55:23.681Z,68.50
2017-08-23T08:57:51.151Z,68.00
2017-08-23T09:00:21.704Z,68.10
2017-08-23T09:02:49.202Z,68.60
2017-08-23T09:05:16.999Z,68.00
2017-08-23T09:07:44.580Z,68.30
2017-08-23T09:10:12.051Z,67.90
2017-08-23T09:12:39.560Z,67.50
2017-08-23T09:15:07.035Z,67.30
2017-08-23T09:17:34.508Z,66.50
2017-08-23T09:20:01.984Z,66.60
2017-08-23T09:22:29.459Z,67.30
2017-08-23T09:24:56.956Z,66.20
2017-08-23T09:27:24.457Z,66.40
2017-08-23T09:29:51.925Z,66.60
2017-08-23T09:32:19.433Z,65.80
2017-08-23T09:34:46.997Z,65.90
2017-08-23T09:37:14.564Z,65.30
2017-08-23T09:39:42.056Z,65.20
2017-08-23T09:42:10.410Z,64.60
2017-08-23T09:44:37.951Z,64.80
2017-08-23T09:47:05.411Z,63.30
2017-08-23T09:49:33.063Z,62.90
2017-08-23T09:52:00.651Z,63.60
2017-08-23T09:54:28.125Z,63.30
2017-08-23T09:56:55.772Z,62.70
2017-08-23T09:59:23.242Z,60.90
2017-08-23T10:01:50.761Z,60.30
2017-08-23T10:04:18.297Z,60.80
2017-08-23T10:06:45.865Z,60.70
2017-08-23T10:09:13.709Z,60.50
2017-08-23T10:11:41.287Z,60.50
2017-08-23T10:14:08.846Z,60.80
2017-08-23T10:16:37.127Z,60.10
2017-08-23T10:19:04.656Z,60.80
2017-08-23T10:21:32.120Z,60.40
2017-08-23T10:23:59.699Z,60.20
2017-08-23T10:26:27.259Z,60.60
2017-08-23T10:28:54.723Z,59.50
2017-08-23T10:31:22.308Z,59.60
2017-08-23T10:33:49.767Z,59.20
2017-08-23T10:36:17.232Z,58.40
2017-08-23T10:38:44.723Z,59.90
2017-08-23T10:41:12.190Z,58.50
2017-08-23T10:43:40.191Z,58.80
2017-08-23T10:46:07.782Z,59.30
2017-08-23T10:48:35.253Z,58.50
2017-08-23T10:51:02.812Z,58.40
2017-08-23T10:53:30.812Z,57.90
2017-08-23T10:55:58.293Z,58.70
2017-08-23T10:58:27.267Z,58.00
2017-08-23T11:00:54.756Z,57.90
2017-08-23T11:03:22.218Z,57.10
2017-08-23T11:05:49.693Z,56.70
2017-08-23T11:08:17.175Z,57.30
2017-08-23T11:10:44.679Z,58.00
2017-08-23T11:13:13.175Z,57.30
2017-08-23T11:15:40.692Z,56.90
2017-08-23T11:18:08.211Z,56.80
2017-08-23T11:20:36.104Z,56.70
2017-08-23T11:23:03.666Z,55.90
2017-08-23T11:25:31.227Z,55.80
2017-08-23T11:28:01.855Z,55.70
2017-08-23T11:30:30.534Z,55.70
2017-08-23T11:32:58.014Z,54.20
2017-08-23T11:35:25.801Z,54.70
2017-08-23T11:37:53.407Z,54.60
2017-08-23T11:40:20.918Z,55.00
2017-08-23T11:42:48.474Z,54.50
2017-08-23T11:45:15.969Z,54.80
2017-08-23T11:47:43.475Z,53.90
2017-08-23T11:50:11.020Z,54.50
2017-08-23T11:52:38.559Z,53.00
2017-08-23T11:55:06.031Z,53.00
2017-08-23T11:57:33.516Z,52.90
2017-08-23T12:00:00.979Z,53.40
2017-08-23T12:02:28.507Z,54.40
2017-08-23T12:04:56.102Z,53.20
2017-08-23T12:07:23.687Z,53.80
2017-08-23T12:09:51.184Z,53.20
2017-08-23T12:12:18.953Z,52.80
2017-08-23T12:14:46.428Z,52.90
2017-08-23T12:17:14.672Z,52.90
2017-08-23T12:19:42.207Z,52.90
2017-08-23T12:22:10.614Z,53.80
2017-08-23T12:24:38.096Z,53.20
2017-08-23T12:27:05.590Z,53.50
2017-08-23T12:29:33.048Z,52.80
2017-08-23T12:32:00.644Z,51.70
2017-08-23T12:34:28.197Z,51.70
2017-08-23T12:36:55.818Z,51.60
2017-08-23T12:39:23.352Z,50.90
2017-08-23T12:41:50.810Z,51.30
2017-08-23T12:44:18.272Z,51.10
2017-08-23T12:46:45.793Z,51.20
2017-08-23T12:49:13.255Z,50.80
2017-08-23T12:51:40.726Z,52.70
2017-08-23T12:54:08.199Z,52.80
2017-08-23T12:56:35.715Z,53.00
2017-08-23T12:59:03.187Z,53.90
2017-08-23T13:01:30.960Z,52.10
2017-08-23T13:03:58.495Z,50.40
2017-08-23T13:06:25.960Z,50.40
2017-08-23T13:08:53.455Z,50.40
2017-08-23T13:11:20.923Z,50.70
2017-08-23T13:13:48.387Z,50.50
2017-08-23T13:16:16.196Z,51.10
2017-08-23T13:18:43.748Z,49.80
2017-08-23T13:21:11.338Z,50.30
2017-08-23T13:23:38.855Z,50.60
2017-08-23T13:26:06.355Z,49.40
2017-08-23T13:28:33.961Z,49.80
2017-08-23T13:31:01.465Z,50.50
2017-08-23T13:33:28.982Z,50.10
2017-08-23T13:35:56.471Z,50.10
2017-08-23T13:38:24.016Z,50.10
2017-08-23T13:40:51.485Z,51.30
2017-08-23T13:43:18.973Z,51.40
2017-08-23T13:45:46.549Z,51.20
2017-08-23T13:48:14.020Z,50.80
2017-08-23T13:50:41.538Z,51.30
2017-08-23T13:53:09.051Z,51.50
2017-08-23T13:55:36.507Z,52.00
2017-08-23T13:58:04.123Z,51.30
2017-08-23T14:00:31.628Z,52.70
2017-08-23T14:02:59.187Z,51.60
2017-08-23T14:05:26.753Z,51.70
2017-08-23T14:07:54.247Z,52.10
2017-08-23T14:10:21.735Z,52.50
2017-08-23T14:12:49.275Z,52.50
2017-08-23T14:15:16.784Z,52.20
2017-08-23T14:17:44.344Z,53.30
2017-08-23T14:20:11.813Z,53.30
2017-08-23T14:22:40.081Z,53.80
2017-08-23T14:25:07.553Z,53.80
2017-08-23T14:27:35.790Z,54.60
2017-08-23T14:30:03.369Z,54.60
2017-08-23T14:32:30.926Z,54.40
2017-08-23T14:34:58.393Z,54.70
2017-08-23T14:37:25.880Z,56.00
2017-08-23T14:39:53.596Z,56.00
2017-08-23T14:42:21.971Z,55.80
2017-08-23T14:44:49.436Z,56.10
2017-08-23T14:47:16.992Z,55.20
2017-08-23T14:49:44.448Z,55.30
2017-08-23T14:52:12.006Z,55.90
2017-08-23T14:54:39.464Z,56.00
2017-08-23T14:57:06.926Z,55.40
2017-08-23T14:59:34.391Z,55.80
2017-08-23T15:02:01.867Z,55.20
2017-08-23T15:04:29.343Z,55.10
2017-08-23T15:06:56.807Z,55.00
2017-08-23T15:09:24.413Z,53.40
2017-08-23T15:11:51.871Z,53.00
2017-08-23T15:14:19.327Z,54.40
2017-08-23T15:16:46.800Z,54.30
2017-08-23T15:19:14.259Z,54.50
2017-08-23T15:21:41.780Z,54.20
2017-08-23T15:24:09.316Z,54.20
2017-08-23T15:26:36.837Z,54.70
2017-08-23T15:29:04.437Z,54.90
2017-08-23T15:31:32.165Z,54.60
2017-08-23T15:33:59.623Z,54.30
2017-08-23T15:36:27.096Z,55.20
2017-08-23T15:38:54.580Z,55.50
2017-08-23T15:41:22.071Z,54.80
2017-08-23T15:43:49.622Z,54.90
2017-08-23T15:46:17.845Z,55.40
2017-08-23T15:48:45.384Z,55.10
2017-08-23T15:51:12.859Z,55.00
2017-08-23T15:53:40.383Z,55.00
2017-08-23T15:56:08.621Z,54.50
2017-08-23T15:58:36.083Z,54.50
2017-08-23T16:01:03.598Z,55.30
2017-08-23T16:03:31.906Z,55.00
2017-08-23T16:05:59.528Z,55.10
2017-08-23T16:08:27.039Z,55.60
2017-08-23T16:10:54.520Z,55.30
2017-08-23T16:13:22.015Z,55.80
2017-08-23T16:15:49.772Z,55.40
2017-08-23T16:18:17.280Z,55.60
2017-08-23T16:20:44.838Z,55.40
2017-08-23T16:23:12.303Z,55.20
2017-08-23T16:25:39.781Z,54.90
2017-08-23T16:28:08.131Z,56.30
2017-08-23T16:30:35.718Z,55.90
2017-08-23T16:33:03.198Z,56.00
2017-08-23T16:35:30.676Z,56.50
2017-08-23T16:37:58.172Z,56.80
2017-08-23T16:40:25.710Z,57.10
2017-08-23T16:42:53.297Z,57.60
2017-08-23T16:45:20.835Z,57.70
2017-08-23T16:47:49.120Z,58.40
2017-08-23T16:50:17.361Z,58.30
2017-08-23T16:52:44.856Z,58.30
2017-08-23T16:55:12.337Z,58.20
2017-08-23T16:57:39.782Z,58.10
2017-08-23T17:00:07.310Z,58.30
2017-08-23T17:02:34.783Z,58.30
2017-08-23T17:05:02.247Z,58.50
2017-08-23T17:07:29.807Z,58.90
2017-08-23T17:09:58.059Z,59.90
2017-08-23T17:12:25.783Z,59.80
2017-08-23T17:14:53.576Z,60.00
2017-08-23T17:17:21.156Z,60.80
2017-08-23T17:19:48.626Z,60.40
2017-08-23T17:22:16.849Z,61.20
2017-08-23T17:24:44.454Z,61.20
2017-08-23T17:27:11.920Z,61.80
2017-08-23T17:29:39.453Z,62.00
2017-08-23T17:32:07.050Z,62.60
2017-08-23T17:34:34.591Z,63.20
2017-08-23T17:37:02.136Z,62.10
2017-08-23T17:39:29.690Z,62.60
2017-08-23T17:41:57.727Z,63.00
2017-08-23T17:44:25.532Z,62.70
2017-08-23T17:46:53.023Z,62.90
2017-08-23T17:49:20.533Z,63.50
2017-08-23T17:51:48.011Z,63.70
2017-08-23T17:54:15.877Z,64.20
2017-08-23T17:56:43.348Z,64.20
2017-08-23T17:59:10.862Z,64.70
2017-08-23T18:01:38.862Z,64.70
2017-08-23T18:04:06.355Z,65.30
2017-08-23T18:06:34.232Z,66.00
2017-08-23T18:09:01.715Z,65.50
2017-08-23T18:11:29.251Z,65.00
2017-08-23T18:13:57.055Z,65.30
2017-08-23T18:16:24.534Z,65.90
2017-08-23T18:18:52.010Z,67.70
2017-08-23T18:21:19.679Z,68.40
2017-08-23T18:23:47.148Z,71.20
2017-08-23T18:26:14.640Z,73.50
2017-08-23T18:28:42.245Z,75.10
2017-08-23T18:31:09.716Z,77.20
2017-08-23T18:33:37.191Z,78.00
2017-08-23T18:36:04.803Z,80.00
2017-08-23T18:38:32.368Z,80.00
2017-08-23T18:41:00.012Z,80.60
2017-08-23T18:43:27.596Z,81.80
2017-08-23T18:45:55.071Z,82.50
2017-08-23T18:48:22.661Z,83.30
2017-08-23T18:50:50.230Z,84.10
2017-08-23T18:53:17.776Z,84.40
2017-08-23T18:55:45.313Z,84.90
2017-08-23T18:58:12.923Z,85.00
2017-08-23T19:00:40.382Z,85.10
2017-08-23T19:03:07.946Z,85.60
2017-08-23T19:05:35.470Z,85.00
2017-08-23T19:08:02.948Z,85.30
2017-08-23T19:10:30.497Z,85.80
2017-08-23T19:12:57.959Z,86.40
2017-08-23T19:15:25.436Z,86.90
2017-08-23T19:17:52.959Z,87.20
2017-08-23T19:20:20.522Z,87.60
2017-08-23T19:22:48.891Z,87.80
2017-08-23T19:25:16.451Z,88.10
2017-08-23T19:27:44.034Z,88.40
2017-08-23T19:30:12.272Z,89.20
2017-08-23T19:32:39.751Z,88.50
2017-08-23T19:35:07.306Z,88.80
2017-08-23T19:37:34.894Z,88.90
2017-08-23T19:40:03.234Z,89.10
2017-08-23T19:42:30.703Z,89.10
2017-08-23T19:44:58.180Z,89.10
2017-08-23T19:47:25.675Z,89.30
2017-08-23T19:49:53.155Z,89.40
2017-08-23T19:52:20.625Z,89.50
2017-08-23T19:54:48.193Z,89.70
2017-08-23T19:57:15.647Z,89.80
2017-08-23T19:59:43.207Z,89.80
2017-08-23T20:02:10.757Z,90.00
2017-08-23T20:04:38.316Z,90.00
2017-08-23T20:07:05.786Z,89.80
2017-08-23T20:09:33.338Z,89.80
2017-08-23T20:12:00.809Z,90.00
2017-08-23T20:14:28.357Z,90.00
2017-08-23T20:16:55.849Z,90.10
2017-08-23T20:19:24.075Z,90.10
2017-08-23T20:21:52.560Z,90.10
2017-08-23T20:24:20.031Z,90.10
2017-08-23T20:26:48.297Z,90.00
2017-08-23T20:29:15.854Z,90.00
2017-08-23T20:31:43.332Z,90.50
2017-08-23T20:34:10.804Z,90.00
2017-08-23T20:36:38.280Z,90.00
2017-08-23T20:39:05.782Z,90.00
2017-08-23T20:41:33.253Z,90.10
2017-08-23T20:44:00.749Z,90.10
2017-08-23T20:46:28.544Z,90.10
2017-08-23T20:48:56.068Z,90.30
2017-08-23T20:51:23.840Z,90.40
2017-08-23T20:53:52.255Z,90.50
2017-08-23T20:56:19.840Z,90.50
2017-08-23T20:58:47.742Z,90.60
2017-08-23T21:01:15.217Z,90.70
2017-08-23T21:03:42.707Z,90.80
2017-08-23T21:06:10.188Z,90.80
2017-08-23T21:08:37.673Z,90.80
2017-08-23T21:11:05.135Z,90.90
2017-08-23T21:13:32.604Z,90.90
2017-08-23T21:16:00.101Z,90.90
2017-08-23T21:18:27.579Z,90.80
2017-08-23T21:20:55.128Z,90.90
2017-08-23T21:23:23.376Z,91.10
2017-08-23T21:25:50.836Z,91.10
2017-08-23T21:28:18.393Z,91.10
2017-08-23T21:30:45.914Z,91.20
2017-08-23T21:33:13.385Z,91.10
2017-08-23T21:35:40.923Z,91.30
2017-08-23T21:38:08.428Z,91.30
2017-08-23T21:40:35.926Z,91.50
2017-08-23T21:43:03.392Z,91.50
2017-08-23T21:45:30.875Z,91.50
2017-08-23T21:47:58.455Z,91.50
2017-08-23T21:50:25.919Z,91.40
2017-08-23T21:52:54.160Z,91.60
2017-08-23T21:55:21.640Z,91.60
2017-08-23T21:57:49.906Z,91.70
2017-08-23T22:00:17.436Z,91.70
2017-08-23T22:02:44.976Z,91.70
2017-08-23T22:05:12.491Z,91.70
2017-08-23T22:07:40.039Z,91.70
2017-08-23T22:10:07.507Z,91.80
2017-08-23T22:12:35.060Z,91.90
2017-08-23T22:15:02.628Z,92.00
2017-08-23T22:17:30.184Z,92.00
2017-08-23T22:19:57.647Z,92.00
2017-08-23T22:22:25.136Z,91.90
2017-08-23T22:24:52.608Z,92.00
2017-08-23T22:27:20.124Z,92.10
2017-08-23T22:29:47.596Z,92.10
2017-08-23T22:32:15.060Z,92.30
2017-08-23T22:34:42.586Z,92.40
2017-08-23T22:37:10.172Z,92.40
2017-08-23T22:39:37.640Z,92.50
2017-08-23T22:42:05.155Z,92.40
2017-08-23T22:44:32.680Z,92.80
2017-08-23T22:47:00.148Z,92.60
2017-08-23T22:49:27.615Z,92.40
2017-08-23T22:51:55.096Z,92.40
2017-08-23T22:54:22.559Z,92.30
2017-08-23T22:56:50.796Z,92.30
2017-08-23T22:59:18.375Z,92.30
2017-08-23T23:01:45.840Z,92.30
2017-08-23T23:04:13.380Z,92.30
2017-08-23T23:06:40.949Z,92.20
2017-08-23T23:09:08.499Z,92.10
2017-08-23T23:11:36.060Z,92.20
2017-08-23T23:14:03.820Z,92.20
2017-08-23T23:16:31.388Z,92.20
2017-08-23T23:18:58.861Z,92.40
2017-08-23T23:21:26.332Z,92.40
2017-08-23T23:23:53.790Z,92.50
2017-08-23T23:26:21.319Z,92.60
2017-08-23T23:28:48.787Z,92.60
2017-08-23T23:31:16.263Z,92.60
2017-08-23T23:33:43.791Z,92.70
2017-08-23T23:36:11.268Z,92.60
2017-08-23T23:38:38.812Z,92.90
2017-08-23T23:41:06.363Z,92.50
2017-08-23T23:43:33.916Z,92.70
2017-08-23T23:46:01.387Z,92.60
2017-08-23T23:48:28.843Z,92.50
2017-08-23T23:50:57.088Z,92.40
2017-08-23T23:53:24.667Z,92.40
2017-08-23T23:55:52.322Z,92.20
2017-08-23T23:58:19.787Z,92.30
